createdAt,value
2022-08-20T00:01:06.196Z,19.10
2022-08-20T00:03:39.187Z,19.00
2022-08-20T00:06:13.824Z,19.00
2022-08-20T00:08:41.718Z,19.00
2022-08-20T00:11:11.881Z,19.00
2022-08-20T00:13:45.678Z,19.00
2022-08-20T00:16:14.736Z,18.90
2022-08-20T00:18:42.267Z,18.90
2022-08-20T00:21:19.171Z,18.90
2022-08-20T00:23:50.673Z,18.90
2022-08-20T00:26:19.121Z,18.80
2022-08-20T00:28:47.326Z,18.80
2022-08-20T00:31:18.567Z,18.80
2022-08-20T00:33:46.527Z,18.80
2022-08-20T00:36:15.905Z,18.80
2022-08-20T00:38:45.792Z,18.80
2022-08-20T00:41:17.826Z,18.80
2022-08-20T00:44:04.872Z,18.70
2022-08-20T00:46:33.196Z,18.70
2022-08-20T00:49:03.972Z,18.70
2022-08-20T00:51:39.392Z,18.70
2022-08-20T00:54:21.068Z,18.70
2022-08-20T00:56:55.069Z,18.70
2022-08-20T00:59:27.541Z,18.70
2022-08-20T01:01:56.420Z,18.60
2022-08-20T01:04:26.610Z,18.60
2022-08-20T01:06:54.848Z,18.60
2022-08-20T01:09:50.596Z,18.60
2022-08-20T01:12:11.075Z,18.70
2022-08-20T01:14:47.223Z,18.60
2022-08-20T01:17:23.846Z,18.60
2022-08-20T01:20:17.145Z,18.60
2022-08-20T01:23:30.368Z,18.60
2022-08-20T01:26:18.888Z,18.60
2022-08-20T01:28:46.151Z,18.60
2022-08-20T01:31:17.311Z,18.50
2022-08-20T01:33:45.755Z,18.50
2022-08-20T01:36:16.082Z,18.50
2022-08-20T01:38:53.907Z,18.50
2022-08-20T01:41:44.085Z,18.50
2022-08-20T01:44:13.860Z,18.50
2022-08-20T01:46:47.423Z,18.40
2022-08-20T01:49:23.188Z,18.40
2022-08-20T01:51:57.094Z,18.40
2022-08-20T01:54:25.911Z,18.40
2022-08-20T01:57:26.340Z,18.30
2022-08-20T01:59:54.189Z,18.30
2022-08-20T02:02:23.707Z,18.30
2022-08-20T02:04:51.330Z,18.30
2022-08-20T02:07:22.326Z,18.30
2022-08-20T02:09:50.389Z,18.20
2022-08-20T02:12:17.862Z,18.20
2022-08-20T02:14:49.392Z,18.10
2022-08-20T02:17:18.533Z,18.20
2022-08-20T02:20:00.687Z,18.10
2022-08-20T02:22:49.913Z,18.10
2022-08-20T02:25:20.965Z,18.10
2022-08-20T02:27:52.207Z,18.10
2022-08-20T02:30:27.723Z,18.00
2022-08-20T02:32:59.740Z,18.00
2022-08-20T02:35:27.567Z,18.00
2022-08-20T02:37:55.881Z,17.90
2022-08-20T02:40:30.996Z,17.90
2022-08-20T02:43:00.396Z,17.90
2022-08-20T02:45:29.204Z,17.80
2022-08-20T02:47:57.799Z,17.80
2022-08-20T02:50:27.136Z,17.80
2022-08-20T02:52:54.731Z,17.80
2022-08-20T02:55:27.951Z,17.70
2022-08-20T02:58:00.718Z,17.70
2022-08-20T03:00:38.183Z,17.70
2022-08-20T03:03:10.769Z,17.70
2022-08-20T03:05:39.732Z,17.70
2022-08-20T03:08:09.265Z,17.70
2022-08-20T03:10:38.177Z,17.60
2022-08-20T03:13:06.928Z,17.60
2022-08-20T03:15:35.013Z,17.60
2022-08-20T03:18:02.428Z,17.50
2022-08-20T03:20:31.415Z,17.50
2022-08-20T03:22:59.574Z,17.40
2022-08-20T03:25:27.365Z,17.40
2022-08-20T03:27:55.683Z,17.30
2022-08-20T03:30:25.408Z,17.30
2022-08-20T03:32:53.423Z,17.30
2022-08-20T03:35:23.322Z,17.20
2022-08-20T03:37:50.827Z,17.20
2022-08-20T03:40:29.556Z,17.10
2022-08-20T03:42:57.120Z,17.10
2022-08-20T03:45:25.744Z,17.10
2022-08-20T03:47:55.330Z,17.10
2022-08-20T03:50:27.172Z,17.10
2022-08-20T03:52:55.483Z,17.10
2022-08-20T03:55:24.161Z,17.10
2022-08-20T03:57:55.372Z,17.10
2022-08-20T04:00:31.808Z,17.10
2022-08-20T04:02:59.574Z,17.10
2022-08-20T04:05:29.115Z,17.10
2022-08-20T04:08:00.099Z,17.10
2022-08-20T04:10:31.595Z,17.10
2022-08-20T04:12:58.922Z,17.20
2022-08-20T04:15:27.259Z,17.20
2022-08-20T04:17:54.962Z,17.20
2022-08-20T04:20:26.239Z,17.20
2022-08-20T04:22:58.989Z,17.20
2022-08-20T04:25:29.528Z,17.20
2022-08-20T04:28:02.121Z,17.20
2022-08-20T04:30:30.280Z,17.20
2022-08-20T04:32:57.613Z,17.30
2022-08-20T04:35:25.156Z,17.30
2022-08-20T04:38:09.318Z,17.30
2022-08-20T04:40:56.197Z,17.30
2022-08-20T04:43:26.280Z,17.30
2022-08-20T04:45:54.557Z,17.30
2022-08-20T04:48:24.364Z,17.30
2022-08-20T04:50:54.054Z,17.30
2022-08-20T04:53:25.960Z,17.30
2022-08-20T04:55:55.380Z,17.30
2022-08-20T04:58:35.082Z,17.40
2022-08-20T05:01:07.911Z,17.30
2022-08-20T05:03:38.327Z,17.40
2022-08-20T05:06:11.087Z,17.40
2022-08-20T05:08:39.211Z,17.40
2022-08-20T05:11:35.826Z,17.40
2022-08-20T05:13:55.935Z,17.40
2022-08-20T05:16:25.031Z,17.40
2022-08-20T05:18:53.010Z,17.50
2022-08-20T05:21:21.492Z,17.50
2022-08-20T05:23:49.639Z,17.50
2022-08-20T05:26:20.500Z,17.40
2022-08-20T05:28:57.715Z,17.40
2022-08-20T05:31:32.025Z,17.50
2022-08-20T05:34:12.923Z,17.50
2022-08-20T05:36:51.590Z,17.40
2022-08-20T05:39:24.487Z,17.40
2022-08-20T05:41:51.722Z,17.30
2022-08-20T05:44:19.744Z,17.30
2022-08-20T05:46:48.339Z,17.30
2022-08-20T05:49:22.560Z,17.30
2022-08-20T05:51:53.243Z,17.20
2022-08-20T05:54:21.171Z,17.10
2022-08-20T05:56:48.554Z,17.10
2022-08-20T05:59:15.906Z,17.10
2022-08-20T06:01:44.080Z,17.10
2022-08-20T06:04:28.509Z,17.10
2022-08-20T06:06:57.182Z,17.10
2022-08-20T06:09:30.884Z,17.10
2022-08-20T06:12:01.682Z,17.10
2022-08-20T06:14:29.568Z,17.10
2022-08-20T06:17:04.180Z,17.10
2022-08-20T06:19:33.286Z,17.10
2022-08-20T06:22:01.349Z,17.10
2022-08-20T06:24:28.716Z,17.10
2022-08-20T06:27:01.842Z,17.10
2022-08-20T06:29:33.504Z,17.10
2022-08-20T06:32:01.869Z,17.10
2022-08-20T06:34:30.904Z,17.10
2022-08-20T06:36:59.747Z,17.10
2022-08-20T06:39:31.410Z,17.10
2022-08-20T06:41:58.925Z,17.20
2022-08-20T06:44:26.279Z,17.20
2022-08-20T06:46:57.321Z,17.20
2022-08-20T06:49:24.584Z,17.20
2022-08-20T06:51:53.374Z,17.20
2022-08-20T06:54:20.763Z,17.20
2022-08-20T06:56:56.264Z,17.20
2022-08-20T06:59:23.746Z,17.20
2022-08-20T07:01:50.826Z,17.20
2022-08-20T07:04:17.997Z,17.20
2022-08-20T07:06:45.018Z,17.10
2022-08-20T07:09:12.091Z,17.10
2022-08-20T07:11:39.106Z,17.00
2022-08-20T07:14:06.282Z,17.00
2022-08-20T07:16:33.359Z,17.00
2022-08-20T07:19:00.419Z,16.90
2022-08-20T07:21:27.417Z,16.90
2022-08-20T07:23:54.504Z,16.90
2022-08-20T07:26:21.707Z,17.00
2022-08-20T07:28:48.897Z,16.90
2022-08-20T07:31:34.945Z,16.90
2022-08-20T07:34:02.837Z,16.90
2022-08-20T07:36:30.467Z,16.90
2022-08-20T07:38:57.888Z,16.90
2022-08-20T07:41:25.573Z,16.90
2022-08-20T07:43:52.668Z,16.90
2022-08-20T07:46:21.745Z,16.90
2022-08-20T07:48:50.686Z,16.90
2022-08-20T07:51:22.561Z,17.00
2022-08-20T07:53:51.813Z,16.90
2022-08-20T07:56:24.792Z,16.90
2022-08-20T07:58:55.812Z,16.90
2022-08-20T08:01:32.537Z,16.90
2022-08-20T08:04:00.827Z,16.90
2022-08-20T08:06:31.366Z,16.90
2022-08-20T08:09:08.087Z,16.90
2022-08-20T08:11:38.236Z,16.90
2022-08-20T08:14:08.350Z,17.00
2022-08-20T08:16:36.516Z,17.10
2022-08-20T08:19:07.204Z,17.20
2022-08-20T08:21:34.537Z,17.20
2022-08-20T08:24:02.722Z,17.30
2022-08-20T08:26:29.905Z,17.40
2022-08-20T08:28:58.835Z,17.60
2022-08-20T08:31:26.571Z,17.60
2022-08-20T08:33:54.020Z,17.70
2022-08-20T08:36:21.170Z,17.70
2022-08-20T08:38:48.255Z,17.80
2022-08-20T08:41:18.093Z,18.00
2022-08-20T08:43:48.960Z,18.20
2022-08-20T08:46:24.241Z,18.30
2022-08-20T08:48:53.657Z,18.50
2022-08-20T08:52:02.508Z,18.50
2022-08-20T08:54:31.461Z,18.60
2022-08-20T08:56:59.804Z,18.80
2022-08-20T08:59:47.369Z,18.80
2022-08-20T09:02:23.236Z,19.00
2022-08-20T09:04:52.146Z,19.20
2022-08-20T09:07:19.636Z,19.40
2022-08-20T09:09:47.594Z,19.30
2022-08-20T09:12:20.763Z,19.10
2022-08-20T09:14:50.196Z,19.00
2022-08-20T09:17:19.863Z,19.00
2022-08-20T09:19:47.414Z,18.90
2022-08-20T09:22:20.194Z,18.90
2022-08-20T09:24:47.711Z,19.00
2022-08-20T09:27:15.162Z,18.90
2022-08-20T09:29:42.350Z,19.00
2022-08-20T09:32:14.071Z,18.90
2022-08-20T09:34:47.805Z,18.90
2022-08-20T09:37:15.632Z,18.90
2022-08-20T09:39:43.627Z,18.90
2022-08-20T09:42:15.448Z,18.80
2022-08-20T09:44:44.114Z,18.70
2022-08-20T09:47:11.499Z,18.60
2022-08-20T09:49:39.466Z,18.70
2022-08-20T09:52:09.507Z,18.90
2022-08-20T09:54:39.252Z,19.00
2022-08-20T09:57:14.837Z,19.20
2022-08-20T09:59:42.097Z,19.50
2022-08-20T10:02:09.275Z,19.70
2022-08-20T10:04:36.400Z,19.70
2022-08-20T10:07:08.018Z,19.80
2022-08-20T10:09:36.513Z,19.70
2022-08-20T10:12:04.934Z,19.60
2022-08-20T10:14:32.131Z,19.70
2022-08-20T10:17:01.039Z,19.70
2022-08-20T10:19:30.294Z,19.80
2022-08-20T10:21:58.405Z,19.80
2022-08-20T10:24:25.864Z,20.00
2022-08-20T10:26:56.683Z,20.20
2022-08-20T10:29:23.896Z,20.50
2022-08-20T10:31:50.910Z,20.60
2022-08-20T10:34:18.010Z,20.60
2022-08-20T10:36:45.698Z,20.60
2022-08-20T10:39:12.830Z,20.70
2022-08-20T10:41:40.093Z,20.80
2022-08-20T10:44:07.952Z,20.80
2022-08-20T10:46:36.770Z,20.80
2022-08-20T10:49:04.853Z,20.70
2022-08-20T10:51:32.509Z,20.60
2022-08-20T10:54:02.076Z,20.80
2022-08-20T10:56:35.451Z,20.90
2022-08-20T10:59:02.469Z,21.00
2022-08-20T11:01:32.923Z,21.10
2022-08-20T11:04:03.387Z,21.20
2022-08-20T11:06:30.479Z,21.50
2022-08-20T11:08:57.501Z,21.80
2022-08-20T11:11:24.667Z,22.10
2022-08-20T11:13:51.776Z,22.40
2022-08-20T11:16:18.992Z,22.60
2022-08-20T11:18:47.475Z,22.60
2022-08-20T11:21:15.053Z,22.40
2022-08-20T11:23:42.195Z,22.50
2022-08-20T11:26:09.793Z,22.60
2022-08-20T11:28:38.895Z,23.10
2022-08-20T11:31:06.264Z,23.70
2022-08-20T11:33:33.331Z,24.20
2022-08-20T11:36:00.418Z,24.30
2022-08-20T11:38:27.538Z,24.40
2022-08-20T11:40:54.630Z,24.80
2022-08-20T11:43:21.680Z,24.50
2022-08-20T11:45:52.736Z,24.60
2022-08-20T11:48:20.253Z,24.60
2022-08-20T11:50:48.380Z,24.60
2022-08-20T11:53:15.653Z,24.60
2022-08-20T11:55:43.710Z,24.90
2022-08-20T11:58:11.346Z,25.20
2022-08-20T12:00:38.556Z,24.90
2022-08-20T12:03:08.976Z,24.50
2022-08-20T12:05:38.459Z,23.70
2022-08-20T12:08:05.698Z,23.80
2022-08-20T12:10:33.121Z,24.40
2022-08-20T12:13:00.284Z,24.50
2022-08-20T12:15:29.907Z,23.90
2022-08-20T12:17:59.188Z,23.20
2022-08-20T12:20:26.318Z,23.00
2022-08-20T12:22:54.227Z,23.20
2022-08-20T12:25:21.415Z,24.00
2022-08-20T12:27:48.501Z,24.70
2022-08-20T12:30:20.006Z,25.00
2022-08-20T12:32:47.751Z,24.90
2022-08-20T12:35:16.827Z,24.20
2022-08-20T12:37:44.898Z,23.50
2022-08-20T12:40:30.750Z,23.50
2022-08-20T12:43:00.627Z,23.90
2022-08-20T12:45:27.933Z,24.30
2022-08-20T12:48:10.570Z,23.80
2022-08-20T12:50:40.603Z,24.00
2022-08-20T12:53:08.176Z,24.60
2022-08-20T12:55:36.961Z,24.90
2022-08-20T12:58:07.546Z,25.30
2022-08-20T13:00:45.981Z,25.60
2022-08-20T13:03:18.011Z,26.00
2022-08-20T13:05:45.080Z,26.00
2022-08-20T13:08:12.873Z,26.40
2022-08-20T13:10:44.667Z,26.30
2022-08-20T13:13:14.394Z,26.60
2022-08-20T13:15:41.603Z,26.70
2022-08-20T13:18:09.392Z,26.60
2022-08-20T13:20:37.344Z,26.90
2022-08-20T13:23:06.009Z,27.10
2022-08-20T13:25:33.849Z,27.70
2022-08-20T13:28:04.655Z,27.60
2022-08-20T13:30:34.071Z,28.00
2022-08-20T13:33:01.599Z,26.80
2022-08-20T13:35:29.248Z,26.50
2022-08-20T13:37:56.352Z,25.80
2022-08-20T13:40:23.776Z,25.20
2022-08-20T13:42:50.857Z,25.00
2022-08-20T13:45:18.364Z,25.10
2022-08-20T13:47:46.550Z,25.40
2022-08-20T13:50:19.360Z,26.40
2022-08-20T13:52:46.917Z,26.10
2022-08-20T13:55:18.319Z,26.50
2022-08-20T13:57:46.017Z,26.40
2022-08-20T14:00:17.710Z,27.00
2022-08-20T14:02:45.166Z,26.90
2022-08-20T14:05:16.098Z,27.20
2022-08-20T14:07:47.068Z,28.00
2022-08-20T14:10:31.335Z,28.20
2022-08-20T14:12:59.339Z,28.20
2022-08-20T14:15:26.947Z,28.00
2022-08-20T14:17:57.240Z,27.70
2022-08-20T14:20:29.314Z,27.60
2022-08-20T14:23:01.252Z,26.70
2022-08-20T14:25:29.681Z,27.00
2022-08-20T14:27:57.169Z,26.90
2022-08-20T14:30:27.298Z,27.20
2022-08-20T14:32:54.823Z,27.40
2022-08-20T14:35:22.918Z,27.30
2022-08-20T14:37:53.555Z,27.30
2022-08-20T14:40:22.809Z,27.20
2022-08-20T14:42:54.872Z,27.40
2022-08-20T14:45:23.051Z,27.70
2022-08-20T14:47:54.198Z,27.90
2022-08-20T14:50:33.706Z,28.00
2022-08-20T14:53:01.579Z,28.30
2022-08-20T14:55:32.046Z,28.00
2022-08-20T14:57:59.349Z,27.70
2022-08-20T15:00:30.530Z,27.90
2022-08-20T15:02:57.786Z,27.90
2022-08-20T15:05:25.040Z,27.90
2022-08-20T15:07:53.793Z,27.90
2022-08-20T15:10:32.561Z,28.10
2022-08-20T15:13:00.478Z,28.20
2022-08-20T15:15:27.878Z,28.00
2022-08-20T15:17:57.276Z,27.70
2022-08-20T15:20:27.932Z,27.40
2022-08-20T15:22:55.637Z,27.70
2022-08-20T15:25:25.913Z,28.00
2022-08-20T15:28:01.795Z,27.90
2022-08-20T15:30:30.728Z,27.70
2022-08-20T15:32:58.024Z,27.60
2022-08-20T15:35:28.155Z,28.00
2022-08-20T15:37:57.211Z,28.10
2022-08-20T15:40:28.435Z,28.10
2022-08-20T15:42:59.966Z,27.80
2022-08-20T15:45:27.499Z,27.60
2022-08-20T15:48:14.194Z,27.50
2022-08-20T15:51:06.156Z,27.40
2022-08-20T15:54:00.673Z,27.10
2022-08-20T15:56:30.728Z,26.90
2022-08-20T15:59:19.129Z,27.00
2022-08-20T16:02:14.943Z,26.70
2022-08-20T16:04:53.690Z,26.30
2022-08-20T16:07:44.181Z,26.30
2022-08-20T16:10:18.394Z,26.20
2022-08-20T16:12:50.514Z,26.40
2022-08-20T16:15:30.299Z,26.00
2022-08-20T16:18:09.273Z,25.70
2022-08-20T16:20:48.011Z,25.60
2022-08-20T16:23:23.628Z,25.50
2022-08-20T16:26:30.077Z,25.30
2022-08-20T16:29:11.293Z,25.10
2022-08-20T16:31:50.219Z,24.90
2022-08-20T16:34:45.378Z,24.70
2022-08-20T16:37:26.242Z,24.60
2022-08-20T16:40:04.640Z,24.40
2022-08-20T16:42:39.065Z,24.40
2022-08-20T16:45:11.895Z,24.30
2022-08-20T16:47:40.930Z,24.40
2022-08-20T16:50:12.420Z,24.20
2022-08-20T16:52:43.012Z,24.20
2022-08-20T16:55:11.264Z,24.10
2022-08-20T16:57:38.560Z,24.00
2022-08-20T17:00:14.373Z,24.00
2022-08-20T17:02:55.629Z,24.00
2022-08-20T17:05:24.534Z,23.80
2022-08-20T17:08:03.988Z,23.80
2022-08-20T17:10:52.834Z,23.80
2022-08-20T17:13:29.946Z,23.80
2022-08-20T17:16:06.439Z,23.70
2022-08-20T17:18:39.784Z,23.50
2022-08-20T17:21:24.767Z,23.40
2022-08-20T17:23:57.003Z,23.20
2022-08-20T17:26:35.269Z,23.10
2022-08-20T17:29:12.996Z,23.10
2022-08-20T17:31:47.724Z,23.00
2022-08-20T17:34:18.523Z,23.00
2022-08-20T17:36:53.451Z,22.90
2022-08-20T17:39:22.437Z,22.80
2022-08-20T17:41:53.082Z,22.70
2022-08-20T17:44:30.039Z,22.60
2022-08-20T17:46:59.421Z,22.60
2022-08-20T17:49:39.800Z,22.50
2022-08-20T17:52:26.463Z,22.40
2022-08-20T17:54:54.220Z,22.30
2022-08-20T17:57:33.425Z,22.20
2022-08-20T18:00:05.813Z,22.10
2022-08-20T18:02:34.313Z,22.00
2022-08-20T18:05:01.927Z,21.90
2022-08-20T18:07:41.220Z,21.70
2022-08-20T18:10:15.123Z,21.70
2022-08-20T18:12:58.959Z,21.60
2022-08-20T18:15:38.686Z,21.60
2022-08-20T18:18:36.483Z,21.40
2022-08-20T18:21:43.784Z,21.30
2022-08-20T18:24:44.581Z,21.10
2022-08-20T18:27:16.297Z,21.00
2022-08-20T18:29:46.532Z,20.90
2022-08-20T18:32:36.902Z,20.80
2022-08-20T18:35:11.612Z,20.60
2022-08-20T18:37:39.340Z,20.60
2022-08-20T18:40:33.069Z,20.40
2022-08-20T18:43:11.014Z,20.20
2022-08-20T18:45:40.309Z,20.20
2022-08-20T18:48:08.300Z,20.10
2022-08-20T18:50:39.400Z,20.10
2022-08-20T18:53:19.975Z,20.00
2022-08-20T18:56:32.368Z,19.90
2022-08-20T18:59:09.265Z,19.90
2022-08-20T19:01:38.014Z,19.90
2022-08-20T19:04:21.455Z,19.90
2022-08-20T19:06:57.674Z,19.80
2022-08-20T19:09:25.027Z,19.70
2022-08-20T19:12:07.260Z,19.60
2022-08-20T19:15:07.979Z,19.50
2022-08-20T19:17:56.355Z,19.40
2022-08-20T19:20:30.951Z,19.20
2022-08-20T19:23:15.811Z,19.20
2022-08-20T19:25:55.934Z,19.10
2022-08-20T19:28:28.988Z,19.00
2022-08-20T19:31:07.816Z,19.00
2022-08-20T19:33:44.455Z,18.90
2022-08-20T19:36:19.427Z,18.90
2022-08-20T19:38:52.712Z,18.80
2022-08-20T19:41:33.051Z,18.80
2022-08-20T19:44:03.083Z,18.70
2022-08-20T19:46:38.015Z,18.60
2022-08-20T19:49:19.388Z,18.60
2022-08-20T19:52:14.010Z,18.50
2022-08-20T19:54:57.910Z,18.40
2022-08-20T19:57:27.364Z,18.30
2022-08-20T20:00:10.751Z,18.20
2022-08-20T20:02:38.343Z,18.10
2022-08-20T20:05:09.633Z,18.10
2022-08-20T20:07:41.375Z,18.10
2022-08-20T20:10:11.814Z,18.10
2022-08-20T20:12:39.730Z,18.10
2022-08-20T20:15:07.714Z,18.10
2022-08-20T20:17:36.650Z,18.20
2022-08-20T20:20:26.254Z,18.10
2022-08-20T20:23:06.646Z,18.10
2022-08-20T20:25:45.234Z,18.10
2022-08-20T20:28:26.115Z,18.00
2022-08-20T20:30:54.090Z,18.00
2022-08-20T20:33:35.874Z,17.90
2022-08-20T20:36:34.375Z,17.90
2022-08-20T20:39:06.013Z,17.80
2022-08-20T20:41:34.951Z,17.80
2022-08-20T20:44:07.502Z,17.70
2022-08-20T20:46:36.552Z,17.70
2022-08-20T20:49:09.273Z,17.70
2022-08-20T20:51:42.582Z,17.70
2022-08-20T20:54:29.803Z,17.70
2022-08-20T20:57:03.478Z,17.70
2022-08-20T20:59:32.348Z,17.70
2022-08-20T21:01:59.484Z,17.60
2022-08-20T21:04:27.249Z,17.50
2022-08-20T21:06:56.286Z,17.50
2022-08-20T21:09:25.073Z,17.40
2022-08-20T21:11:52.516Z,17.40
2022-08-20T21:14:20.320Z,17.40
2022-08-20T21:16:48.573Z,17.40
2022-08-20T21:19:16.205Z,17.40
2022-08-20T21:21:43.867Z,17.40
2022-08-20T21:24:11.249Z,17.40
2022-08-20T21:26:39.574Z,17.40
2022-08-20T21:29:09.311Z,17.40
2022-08-20T21:31:43.451Z,17.30
2022-08-20T21:34:12.302Z,17.30
2022-08-20T21:36:39.507Z,17.20
2022-08-20T21:39:06.543Z,17.10
2022-08-20T21:41:34.351Z,17.00
2022-08-20T21:44:06.343Z,17.00
2022-08-20T21:46:33.378Z,16.90
2022-08-20T21:49:02.585Z,16.80
2022-08-20T21:51:30.970Z,16.70
2022-08-20T21:54:01.294Z,16.60
2022-08-20T21:56:29.127Z,16.60
2022-08-20T21:59:00.819Z,16.60
2022-08-20T22:01:28.479Z,16.60
2022-08-20T22:03:55.610Z,16.70
2022-08-20T22:06:22.699Z,16.80
2022-08-20T22:08:50.068Z,16.90
2022-08-20T22:11:17.365Z,16.90
2022-08-20T22:13:45.088Z,17.00
2022-08-20T22:16:16.249Z,17.00
2022-08-20T22:18:43.401Z,16.90
2022-08-20T22:21:14.632Z,17.00
2022-08-20T22:23:41.903Z,17.00
2022-08-20T22:26:09.456Z,16.80
2022-08-20T22:28:37.209Z,16.80
2022-08-20T22:31:04.832Z,16.70
2022-08-20T22:33:34.245Z,16.60
2022-08-20T22:36:03.263Z,16.50
2022-08-20T22:38:30.841Z,16.50
2022-08-20T22:40:57.969Z,16.50
2022-08-20T22:43:25.099Z,16.50
2022-08-20T22:45:55.746Z,16.50
2022-08-20T22:48:23.092Z,16.30
2022-08-20T22:50:51.814Z,16.10
2022-08-20T22:53:20.927Z,16.00
2022-08-20T22:55:49.316Z,15.80
2022-08-20T22:58:17.857Z,15.70
2022-08-20T23:00:47.806Z,15.60
2022-08-20T23:03:19.831Z,15.50
2022-08-20T23:05:59.513Z,15.40
2022-08-20T23:08:27.164Z,15.30
2022-08-20T23:10:54.376Z,15.30
2022-08-20T23:13:21.602Z,15.20
2022-08-20T23:15:48.696Z,15.10
2022-08-20T23:18:19.013Z,15.00
2022-08-20T23:20:52.851Z,14.90
2022-08-20T23:23:20.331Z,14.80
2022-08-20T23:25:47.740Z,14.80
2022-08-20T23:28:19.291Z,14.80
2022-08-20T23:30:47.591Z,14.80
2022-08-20T23:33:15.343Z,14.70
2022-08-20T23:35:44.346Z,14.70
2022-08-20T23:38:11.562Z,14.70
2022-08-20T23:40:38.890Z,14.90
2022-08-20T23:43:06.661Z,14.90
2022-08-20T23:45:34.661Z,14.80
2022-08-20T23:48:07.155Z,14.70
2022-08-20T23:50:34.276Z,14.80
2022-08-20T23:53:01.496Z,14.80
2022-08-20T23:55:28.589Z,14.70
2022-08-20T23:57:55.956Z,14.70
